Time;durP1;ratioP1;P1;durP2;ratioP2;P2;SDS_P1;SDS_P2;PMS_P1;PMS_P2;Temp;Humidity;BMP_temperature;BMP_pressure;BME280_temperature;BME280_humidity;BME280_pressure;Samples;Min_cycle;Max_cycle;Signal;HPM_P1;HPM_P2
2022/12/20 00:00:51;;;;;;;4.03;1.52;;;;;;;9.57;92.20;101234.84;4961186;28;20118;-81
2022/12/20 00:03:16;;;;;;;6.50;1.50;;;;;;;9.59;92.63;101244.13;4948344;28;20035;-79
2022/12/20 00:05:43;;;;;;;3.65;1.60;;;;;;;9.42;92.28;101245.63;4951346;28;20102;-80
2022/12/20 00:08:09;;;;;;;3.47;1.45;;;;;;;9.38;93.05;101244.28;4951254;28;20041;-81
2022/12/20 00:10:39;;;;;;;3.13;1.38;;;;;;;9.38;93.35;101239.13;4964963;28;20044;-81
2022/12/20 00:13:05;;;;;;;4.03;1.25;;;;;;;9.43;92.86;101234.31;4954205;28;20036;-80
2022/12/20 00:15:31;;;;;;;4.70;1.63;;;;;;;9.64;91.42;101226.38;4945326;28;20066;-80
2022/12/20 00:17:57;;;;;;;3.47;1.38;;;;;;;9.77;90.84;101220.09;4969859;28;20065;-78
2022/12/20 00:20:23;;;;;;;3.40;1.52;;;;;;;9.71;91.11;101214.50;4973114;28;20053;-80
2022/12/20 00:22:48;;;;;;;3.58;1.23;;;;;;;9.72;91.25;101216.16;4971171;28;20403;-81
2022/12/20 00:25:14;;;;;;;5.82;2.50;;;;;;;9.79;90.74;101211.22;4957001;28;20035;-80
2022/12/20 00:27:39;;;;;;;7.70;1.40;;;;;;;9.71;90.69;101213.69;4967892;28;20476;-81
2022/12/20 00:30:05;;;;;;;3.55;1.83;;;;;;;9.68;90.81;101213.97;4972476;28;20053;-82
2022/12/20 00:32:31;;;;;;;4.75;1.40;;;;;;;9.71;90.70;101206.75;4963454;28;20121;-81
2022/12/20 00:34:57;;;;;;;6.35;2.50;;;;;;;9.71;90.14;101213.69;4950560;28;20451;-77
2022/12/20 00:37:23;;;;;;;4.05;2.00;;;;;;;9.66;90.56;101208.97;4948295;28;20070;-80
2022/12/20 00:39:48;;;;;;;5.18;2.25;;;;;;;9.70;90.89;101206.88;4965176;28;20043;-78
2022/12/20 00:42:14;;;;;;;4.78;1.95;;;;;;;9.68;90.33;101204.44;4957879;28;20043;-81
2022/12/20 00:44:40;;;;;;;8.00;2.08;;;;;;;9.80;89.93;101201.69;4967584;28;20031;-80
2022/12/20 00:47:06;;;;;;;3.65;1.63;;;;;;;9.74;89.56;101197.91;4941484;28;20158;-79
2022/12/20 00:49:31;;;;;;;9.07;2.58;;;;;;;9.76;89.77;101195.97;4944245;28;20035;-81
2022/12/20 00:51:57;;;;;;;5.07;1.70;;;;;;;9.88;89.29;101201.78;4930901;28;20053;-80
2022/12/20 00:54:22;;;;;;;2.55;1.70;;;;;;;9.70;89.61;101202.53;4956146;28;20026;-81
2022/12/20 00:56:48;;;;;;;3.63;1.40;;;;;;;9.74;89.87;101203.06;4950459;28;20043;-78
2022/12/20 00:59:13;;;;;;;2.15;1.45;;;;;;;9.88;89.33;101194.03;4961322;28;20412;-80
2022/12/20 01:01:38;;;;;;;3.45;1.60;;;;;;;9.86;88.64;101193.34;4956448;28;20039;-81
2022/12/20 01:04:04;;;;;;;4.43;1.50;;;;;;;9.89;88.45;101190.50;4968019;28;20031;-81
2022/12/20 01:06:30;;;;;;;5.13;1.50;;;;;;;10.03;87.87;101184.03;4969296;28;20035;-80
2022/12/20 01:08:56;;;;;;;6.68;1.60;;;;;;;9.84;88.10;101198.66;4968782;28;20034;-78
2022/12/20 01:11:27;;;;;;;3.85;1.30;;;;;;;9.72;89.23;101194.63;4963297;28;20035;-79
2022/12/20 01:13:55;;;;;;;6.72;2.03;;;;;;;9.93;88.08;101194.44;4962855;28;20121;-81
2022/12/20 01:16:35;;;;;;;3.28;1.30;;;;;;;10.04;87.27;101181.28;4978525;28;20736;-80
2022/12/20 01:19:01;;;;;;;6.15;2.00;;;;;;;9.89;87.53;101182.72;4964352;28;20031;-81
2022/12/20 01:21:26;;;;;;;4.00;1.33;;;;;;;9.79;88.41;101185.31;4968787;28;20130;-78
2022/12/20 01:23:52;;;;;;;5.03;1.58;;;;;;;9.87;88.42;101189.78;4969062;28;20050;-79
2022/12/20 01:26:21;;;;;;;3.33;1.30;;;;;;;9.92;87.65;101182.41;4950322;28;20047;-81
2022/12/20 01:28:50;;;;;;;3.63;1.70;;;;;;;9.97;87.34;101187.19;4953375;28;20034;-81
2022/12/20 01:31:17;;;;;;;3.97;1.60;;;;;;;10.00;87.17;101179.13;4942149;28;20097;-80
2022/12/20 01:33:44;;;;;;;2.75;1.58;;;;;;;10.09;87.06;101186.03;4948065;28;20126;-81
2022/12/20 01:36:12;;;;;;;2.22;1.40;;;;;;;10.04;87.58;101183.03;4947503;28;20030;-78
2022/12/20 01:38:38;;;;;;;4.07;1.50;;;;;;;10.13;87.93;101187.38;4969531;28;20023;-81
2022/12/20 01:41:04;;;;;;;6.43;1.73;;;;;;;10.08;87.72;101184.41;4966986;28;20508;-81
2022/12/20 01:43:53;;;;;;;4.15;1.77;;;;;;;10.04;88.09;101180.44;4953984;28;20543;-82
2022/12/20 01:46:22;;;;;;;3.85;1.38;;;;;;;9.91;89.09;101189.38;4961847;28;20516;-81
2022/12/20 01:48:59;;;;;;;5.78;1.73;;;;;;;10.19;87.17;101196.34;4969721;28;20078;-82
2022/12/20 01:51:28;;;;;;;3.38;1.23;;;;;;;10.05;87.86;101180.31;4965407;28;20047;-80
2022/12/20 01:54:00;;;;;;;5.15;1.80;;;;;;;9.91;88.65;101181.59;4968129;28;20031;-81
2022/12/20 01:56:26;;;;;;;3.17;1.70;;;;;;;10.01;88.23;101178.97;4942143;28;20134;-81
2022/12/20 01:58:53;;;;;;;3.45;1.33;;;;;;;10.12;87.63;101165.84;4950478;28;20055;-81
2022/12/20 02:01:21;;;;;;;4.13;1.50;;;;;;;10.12;87.37;101162.44;4951024;28;20524;-79
2022/12/20 02:03:48;;;;;;;2.92;1.50;;;;;;;10.14;87.58;101176.06;4966531;28;20027;-82
2022/12/20 02:06:20;;;;;;;5.15;1.85;;;;;;;10.07;87.40;101168.03;4961363;28;20049;-82
2022/12/20 02:08:48;;;;;;;6.90;1.45;;;;;;;9.97;88.51;101158.69;4966216;28;20033;-81
2022/12/20 02:11:16;;;;;;;4.65;1.15;;;;;;;9.80;89.45;101163.66;4948557;28;20038;-80
2022/12/20 02:14:04;;;;;;;1.92;1.23;;;;;;;9.85;88.88;101158.88;4964515;28;20512;-80
2022/12/20 02:16:35;;;;;;;5.63;1.38;;;;;;;9.74;89.73;101154.69;4956805;28;20067;-81
2022/12/20 02:19:20;;;;;;;3.75;1.38;;;;;;;9.75;90.08;101165.84;4966944;28;20042;-81
2022/12/20 02:21:58;;;;;;;5.47;2.05;;;;;;;9.81;89.77;101152.31;4966216;28;20046;-78
2022/12/20 02:24:53;;;;;;;4.75;1.58;;;;;;;9.98;88.85;101142.97;4948656;28;20035;-78
2022/12/20 02:27:39;;;;;;;2.22;1.40;;;;;;;9.92;88.72;101139.19;4950232;28;20466;-82
2022/12/20 02:30:07;;;;;;;3.38;1.63;;;;;;;9.90;89.85;101141.09;4964428;28;20122;-81
2022/12/20 02:32:46;;;;;;;3.10;1.42;;;;;;;9.81;90.90;101143.75;4951516;28;20412;-81
2022/12/20 02:35:18;;;;;;;5.90;1.70;;;;;;;9.67;91.42;101153.59;4969334;28;20031;-82
2022/12/20 02:37:53;;;;;;;5.18;1.65;;;;;;;9.71;91.84;101164.50;4957161;28;20081;-80
2022/12/20 02:40:24;;;;;;;2.97;1.65;;;;;;;9.93;90.38;101168.53;4963924;28;20055;-81
2022/12/20 02:42:55;;;;;;;4.40;1.63;;;;;;;9.85;90.20;101156.28;4965283;28;20499;-79
2022/12/20 02:45:27;;;;;;;2.58;1.40;;;;;;;9.86;91.42;101154.50;4970509;28;20030;-82
2022/12/20 02:48:06;;;;;;;5.32;2.65;;;;;;;9.88;92.69;101160.34;4966477;28;20114;-81
2022/12/20 02:50:36;;;;;;;2.70;1.63;;;;;;;9.74;95.28;101165.03;4969063;28;20081;-81
2022/12/20 02:53:05;;;;;;;3.53;1.65;;;;;;;9.68;97.13;101162.19;4948966;28;20123;-81
2022/12/20 02:55:41;;;;;;;5.40;1.75;;;;;;;9.50;98.85;101159.53;4969346;28;20416;-82
2022/12/20 02:58:23;;;;;;;3.67;1.75;;;;;;;9.46;100.00;101173.72;4959757;28;20037;-79
2022/12/20 03:00:50;;;;;;;4.57;1.75;;;;;;;9.31;100.00;101165.56;4979751;28;20054;-80
2022/12/20 03:03:21;;;;;;;7.30;2.10;;;;;;;9.30;100.00;101154.38;4965584;28;20487;-80
2022/12/20 03:05:49;;;;;;;3.72;1.83;;;;;;;9.27;100.00;101154.66;4947455;28;20069;-80
2022/12/20 03:08:18;;;;;;;5.50;2.30;;;;;;;9.28;100.00;101169.22;4942182;28;20042;-82
2022/12/20 03:10:44;;;;;;;7.97;1.90;;;;;;;9.36;100.00;101158.16;4949509;28;20050;-80
2022/12/20 03:13:10;;;;;;;4.50;1.90;;;;;;;9.23;100.00;101152.47;4967181;28;21504;-81
2022/12/20 03:15:41;;;;;;;4.00;2.00;;;;;;;9.20;100.00;101152.78;4963793;28;20091;-81
2022/12/20 03:18:07;;;;;;;8.95;2.63;;;;;;;9.21;100.00;101150.06;4965674;28;20047;-80
2022/12/20 03:20:32;;;;;;;4.13;1.95;;;;;;;9.18;100.00;101147.72;4951806;28;20027;-80
2022/12/20 03:22:58;;;;;;;4.30;1.67;;;;;;;9.22;100.00;101156.84;4969535;28;20145;-79
2022/12/20 03:25:24;;;;;;;4.10;2.20;;;;;;;9.07;100.00;101146.09;4962687;28;20035;-81
2022/12/20 03:27:49;;;;;;;3.35;1.98;;;;;;;9.02;100.00;101148.28;4961793;28;20038;-80
2022/12/20 03:30:16;;;;;;;7.47;1.80;;;;;;;8.95;100.00;101155.78;4968324;28;20551;-80
2022/12/20 03:32:42;;;;;;;7.22;2.45;;;;;;;8.91;100.00;101146.66;4952763;28;20049;-78
2022/12/20 03:35:07;;;;;;;4.90;2.10;;;;;;;8.88;100.00;101151.28;4966552;28;20031;-80
2022/12/20 03:37:37;;;;;;;5.05;2.10;;;;;;;8.82;100.00;101147.47;4960456;28;20038;-79
2022/12/20 03:40:04;;;;;;;6.75;2.53;;;;;;;8.89;100.00;101152.91;4950363;28;20026;-80
2022/12/20 03:42:31;;;;;;;4.05;1.88;;;;;;;9.11;100.00;101157.78;4969312;28;20062;-79
2022/12/20 03:44:56;;;;;;;4.38;2.65;;;;;;;9.08;100.00;101163.25;4947014;28;20761;-80
2022/12/20 03:47:25;;;;;;;5.60;2.65;;;;;;;9.07;100.00;101164.22;4965969;28;20607;-80
2022/12/20 03:49:51;;;;;;;7.25;2.33;;;;;;;9.02;100.00;101171.56;4965346;28;20640;-80
2022/12/20 03:52:17;;;;;;;4.13;2.00;;;;;;;9.06;100.00;101166.91;4965072;28;20317;-81
2022/12/20 03:54:43;;;;;;;4.97;2.05;;;;;;;9.04;100.00;101161.06;4965786;28;20041;-80
2022/12/20 03:57:12;;;;;;;8.27;3.10;;;;;;;9.03;100.00;101154.28;4966494;28;21748;-81
2022/12/20 03:59:38;;;;;;;5.00;2.55;;;;;;;9.13;100.00;101150.72;4953292;28;20034;-81
2022/12/20 04:02:05;;;;;;;8.55;3.20;;;;;;;9.10;100.00;101153.59;4975022;28;20920;-81
2022/12/20 04:04:32;;;;;;;6.07;2.80;;;;;;;9.02;100.00;101163.78;4965428;28;20039;-80
2022/12/20 04:06:57;;;;;;;6.60;3.30;;;;;;;8.95;100.00;101155.78;4951329;28;20035;-82
2022/12/20 04:09:23;;;;;;;9.23;3.75;;;;;;;8.83;100.00;101161.22;4967586;28;20491;-79
2022/12/20 04:11:55;;;;;;;9.65;4.03;;;;;;;8.83;100.00;101158.63;4965999;28;20038;-81
2022/12/20 04:14:20;;;;;;;7.05;3.88;;;;;;;8.90;100.00;101154.56;4969181;28;20483;-81
2022/12/20 04:16:47;;;;;;;11.15;3.30;;;;;;;8.89;100.00;101158.06;4957718;28;20061;-81
2022/12/20 04:19:13;;;;;;;9.48;3.80;;;;;;;8.81;100.00;101161.34;4951771;28;20038;-80
2022/12/20 04:21:42;;;;;;;7.50;3.58;;;;;;;8.66;100.00;101160.91;4956046;28;20038;-81
2022/12/20 04:24:09;;;;;;;11.30;4.30;;;;;;;8.71;100.00;101160.53;4943237;28;20034;-80
2022/12/20 04:27:07;;;;;;;4.80;3.53;;;;;;;8.56;100.00;101154.94;4974601;28;20148;-81
2022/12/20 04:29:32;;;;;;;8.38;3.55;;;;;;;8.37;100.00;101156.50;4964246;28;20024;-80
2022/12/20 04:31:58;;;;;;;8.77;4.07;;;;;;;8.33;100.00;101155.13;4959337;28;20117;-80
2022/12/20 04:34:24;;;;;;;6.07;3.25;;;;;;;8.30;100.00;101163.13;4967433;28;20031;-81
2022/12/20 04:36:50;;;;;;;11.55;3.72;;;;;;;8.22;100.00;101157.81;4965052;28;20057;-79
2022/12/20 04:39:25;;;;;;;7.47;3.67;;;;;;;8.19;100.00;101150.31;4950149;28;20031;-81
2022/12/20 04:42:11;;;;;;;7.57;3.70;;;;;;;8.11;100.00;101147.59;4970745;28;20329;-80
2022/12/20 04:44:37;;;;;;;9.05;4.45;;;;;;;8.14;100.00;101155.91;4957030;28;20589;-80
2022/12/20 04:47:03;;;;;;;8.48;3.92;;;;;;;8.20;100.00;101141.63;4963868;28;20036;-81
2022/12/20 04:49:29;;;;;;;8.15;4.43;;;;;;;8.09;100.00;101136.56;4962767;28;20087;-80
2022/12/20 04:53:45;;;;;;;11.50;3.78;;;;;;;8.21;100.00;101145.84;4946004;28;20737;-81
2022/12/20 04:54:39;;;;;;;10.57;3.63;;;;;;;8.11;100.00;101135.50;4972349;28;20030;-80
2022/12/20 04:57:13;;;;;;;8.15;4.32;;;;;;;8.06;100.00;101127.34;4953195;28;20039;-81
2022/12/20 04:59:38;;;;;;;13.75;5.57;;;;;;;7.88;100.00;101131.47;4969442;28;20035;-80
2022/12/20 05:02:04;;;;;;;7.97;4.85;;;;;;;7.93;100.00;101131.88;4966758;28;20935;-79
2022/12/20 05:04:51;;;;;;;10.52;5.22;;;;;;;7.90;100.00;101140.72;4951643;28;20070;-79
2022/12/20 05:07:17;;;;;;;9.77;4.47;;;;;;;8.00;100.00;101122.69;4961819;28;21684;-80
2022/12/20 05:09:48;;;;;;;8.60;4.63;;;;;;;7.89;100.00;101115.88;4961007;28;20051;-80
2022/12/20 05:12:14;;;;;;;8.35;4.75;;;;;;;7.96;100.00;101109.19;4947445;28;20125;-79
2022/12/20 05:14:39;;;;;;;13.40;5.10;;;;;;;7.83;100.00;101111.19;4949177;28;20034;-80
2022/12/20 05:17:05;;;;;;;8.80;4.45;;;;;;;7.82;100.00;101111.31;4949859;28;20385;-80
2022/12/20 05:19:30;;;;;;;9.85;5.05;;;;;;;7.82;100.00;101113.91;4953585;28;20034;-79
2022/12/20 05:27:37;;;;;;;8.55;5.22;;;;;;;7.92;100.00;101104.44;4966516;28;20048;-79
2022/12/20 05:30:03;;;;;;;14.57;5.72;;;;;;;7.82;100.00;101096.69;4968592;28;20027;-79
2022/12/20 05:32:29;;;;;;;9.88;5.00;;;;;;;7.80;100.00;101094.22;4969343;28;20039;-80
2022/12/20 05:34:55;;;;;;;12.25;5.22;;;;;;;7.74;100.00;101097.31;4969383;28;20030;-79
2022/12/20 05:37:21;;;;;;;10.20;5.65;;;;;;;7.82;100.00;101098.41;4962379;28;20444;-80
2022/12/20 05:39:46;;;;;;;12.52;5.97;;;;;;;7.73;100.00;101094.88;4950448;28;20034;-79
2022/12/20 05:42:17;;;;;;;12.15;5.30;;;;;;;7.77;100.00;101098.81;4964996;28;20050;-79
2022/12/20 05:44:43;;;;;;;9.40;4.95;;;;;;;7.82;100.00;101081.19;4963158;28;21437;-78
2022/12/20 05:47:08;;;;;;;10.82;5.00;;;;;;;7.85;100.00;101083.47;4953881;28;20042;-79
2022/12/20 05:49:35;;;;;;;9.82;5.32;;;;;;;7.90;100.00;101088.28;4965132;28;20113;-79
2022/12/20 05:52:04;;;;;;;11.55;4.95;;;;;;;7.83;100.00;101080.22;4968084;28;20109;-78
2022/12/20 05:54:30;;;;;;;10.20;5.05;;;;;;;7.81;100.00;101084.69;4966680;28;20491;-80
2022/12/20 05:57:04;;;;;;;15.57;4.80;;;;;;;7.83;100.00;101087.16;4954813;28;20066;-79
2022/12/20 05:59:34;;;;;;;11.88;4.32;;;;;;;7.90;100.00;101078.75;4969415;28;20046;-79
2022/12/20 06:02:01;;;;;;;12.02;4.63;;;;;;;7.94;100.00;101074.16;4962869;28;20060;-79
2022/12/20 06:04:26;;;;;;;12.32;4.70;;;;;;;7.95;100.00;101076.59;4968728;28;20038;-78
2022/12/20 06:06:52;;;;;;;12.00;4.43;;;;;;;7.84;100.00;101068.97;4970553;28;20064;-80
2022/12/20 06:09:18;;;;;;;11.50;4.78;;;;;;;7.91;100.00;101082.13;4952734;28;20780;-78
2022/12/20 06:11:52;;;;;;;11.02;4.80;;;;;;;7.87;100.00;101078.19;4968634;28;20110;-80
2022/12/20 06:14:18;;;;;;;7.68;4.50;;;;;;;7.85;100.00;101074.94;4971582;28;20026;-79
2022/12/20 06:16:46;;;;;;;10.13;4.78;;;;;;;7.78;100.00;101077.22;4953223;28;20042;-79
2022/12/20 06:19:13;;;;;;;11.43;4.30;;;;;;;7.70;100.00;101077.06;4979764;28;20027;-79
2022/12/20 06:21:40;;;;;;;8.63;4.13;;;;;;;7.80;100.00;101072.75;4953309;28;20109;-78
2022/12/20 06:24:08;;;;;;;12.27;4.60;;;;;;;7.99;100.00;101056.50;4969874;28;20026;-78
2022/12/20 06:26:37;;;;;;;8.90;3.30;;;;;;;7.99;100.00;101062.47;4961435;28;20106;-78
2022/12/20 06:29:07;;;;;;;8.75;3.85;;;;;;;8.02;100.00;101047.66;4960618;28;20752;-79
2022/12/20 06:31:40;;;;;;;5.90;3.20;;;;;;;8.06;100.00;101042.09;4947320;28;20038;-79
2022/12/20 06:34:06;;;;;;;5.28;3.40;;;;;;;8.07;100.00;101037.75;4968327;28;20042;-80
2022/12/20 06:36:34;;;;;;;6.72;3.20;;;;;;;8.01;100.00;101028.78;4962391;28;20082;-80
2022/12/20 06:39:00;;;;;;;6.53;3.40;;;;;;;7.98;100.00;101029.84;4967642;28;20492;-79
2022/12/20 06:41:27;;;;;;;6.50;3.63;;;;;;;8.14;100.00;101020.78;4964395;28;20051;-78
2022/12/20 06:43:53;;;;;;;8.30;3.42;;;;;;;8.19;100.00;101018.56;4969202;28;20423;-78
2022/12/20 06:46:18;;;;;;;7.43;3.35;;;;;;;8.14;100.00;101024.16;4960530;28;20061;-79
2022/12/20 06:48:44;;;;;;;8.65;3.40;;;;;;;8.13;100.00;101021.72;4953181;28;20064;-79
2022/12/20 06:51:11;;;;;;;9.48;3.95;;;;;;;8.13;100.00;101026.88;4952491;28;20487;-80
2022/12/20 06:53:36;;;;;;;10.90;3.92;;;;;;;8.09;100.00;101026.31;4968617;28;20077;-79
2022/12/20 06:56:02;;;;;;;6.75;3.50;;;;;;;8.12;100.00;101027.84;4967350;28;20065;-79
2022/12/20 06:58:30;;;;;;;8.30;3.28;;;;;;;8.06;100.00;101029.19;4949773;28;20030;-80
2022/12/20 07:00:55;;;;;;;8.43;3.75;;;;;;;8.01;100.00;101030.53;4944610;28;20034;-79
2022/12/20 07:03:21;;;;;;;5.45;3.35;;;;;;;8.06;100.00;101018.03;4964386;28;20524;-79
2022/12/20 07:05:53;;;;;;;8.88;3.45;;;;;;;8.12;100.00;101014.94;4952406;28;20086;-79
2022/12/20 07:08:20;;;;;;;7.50;3.17;;;;;;;8.21;100.00;101013.28;4967673;28;20053;-79
2022/12/20 07:10:45;;;;;;;7.47;3.00;;;;;;;8.19;100.00;101008.25;4961244;28;20293;-80
2022/12/20 07:13:11;;;;;;;6.68;3.08;;;;;;;8.18;100.00;100998.88;4961959;28;20456;-80
2022/12/20 07:15:36;;;;;;;9.15;3.83;;;;;;;8.16;100.00;101006.75;4978124;28;20072;-78
2022/12/20 07:18:02;;;;;;;4.97;2.72;;;;;;;8.29;100.00;100995.34;4966626;28;20031;-79
2022/12/20 07:20:28;;;;;;;12.82;2.97;;;;;;;8.25;100.00;100993.97;4954750;28;20590;-79
2022/12/20 07:22:54;;;;;;;10.75;2.60;;;;;;;8.21;100.00;100984.88;4964893;28;20034;-79
2022/12/20 07:25:19;;;;;;;6.93;2.97;;;;;;;8.12;100.00;100999.44;4947892;28;20506;-79
2022/12/20 07:27:48;;;;;;;10.40;3.25;;;;;;;8.15;100.00;101002.53;4945022;28;20149;-79
2022/12/20 07:30:15;;;;;;;10.18;3.95;;;;;;;8.17;100.00;100999.81;4961724;28;20519;-80
2022/12/20 07:32:40;;;;;;;8.98;3.80;;;;;;;8.06;100.00;100987.88;4952778;28;20055;-79
2022/12/20 07:35:07;;;;;;;8.45;2.95;;;;;;;7.99;100.00;100991.94;4963173;28;20211;-79
2022/12/20 07:37:32;;;;;;;8.45;3.72;;;;;;;7.98;100.00;100995.44;4948360;28;20114;-79
2022/12/20 07:39:58;;;;;;;10.10;3.20;;;;;;;8.08;100.00;100982.53;4965438;28;20085;-79
2022/12/20 07:42:23;;;;;;;9.57;3.42;;;;;;;8.10;100.00;101003.88;4964846;28;20096;-79
2022/12/20 07:44:49;;;;;;;5.22;3.15;;;;;;;8.01;100.00;100999.56;4979931;28;20149;-78
2022/12/20 07:47:14;;;;;;;10.13;3.58;;;;;;;8.12;100.00;101007.19;4961089;28;20045;-80
2022/12/20 07:49:40;;;;;;;12.32;3.92;;;;;;;8.14;100.00;101015.59;4962932;28;20030;-79
2022/12/20 07:52:09;;;;;;;8.43;3.20;;;;;;;8.11;100.00;101021.84;4965822;28;20046;-80
2022/12/20 07:54:41;;;;;;;6.00;2.78;;;;;;;8.07;100.00;101019.66;4966537;28;20041;-79
2022/12/20 07:57:16;;;;;;;8.43;2.60;;;;;;;8.16;100.00;101018.88;4965916;28;20521;-79
2022/12/20 07:59:49;;;;;;;6.25;2.55;;;;;;;8.10;100.00;101022.81;4964124;28;20034;-79
2022/12/20 08:02:20;;;;;;;6.03;2.88;;;;;;;8.10;100.00;101014.22;4966623;28;20230;-79
2022/12/20 08:04:47;;;;;;;8.57;2.47;;;;;;;8.28;100.00;101007.44;4973078;28;20051;-78
2022/12/20 08:07:12;;;;;;;7.80;2.75;;;;;;;8.37;100.00;100992.91;4959651;28;20147;-79
2022/12/20 08:09:42;;;;;;;6.90;2.38;;;;;;;8.43;100.00;100999.31;4964651;28;20788;-78
2022/12/20 08:12:11;;;;;;;9.13;2.15;;;;;;;8.45;100.00;100998.22;4969083;28;20074;-80
2022/12/20 08:14:37;;;;;;;4.20;2.55;;;;;;;8.50;100.00;100997.81;4946932;28;20023;-79
2022/12/20 08:17:02;;;;;;;5.10;2.70;;;;;;;8.48;100.00;100997.94;4967607;28;20406;-79
2022/12/20 08:19:28;;;;;;;5.53;2.30;;;;;;;8.56;100.00;100992.09;4954369;28;20031;-79
2022/12/20 08:21:53;;;;;;;10.35;4.65;;;;;;;8.62;100.00;100994.13;4963516;28;20043;-79
2022/12/20 08:24:19;;;;;;;4.63;2.30;;;;;;;8.65;100.00;100995.63;4965694;28;20035;-79
2022/12/20 08:26:44;;;;;;;6.90;2.30;;;;;;;8.67;100.00;100996.31;4952214;28;20483;-79
2022/12/20 08:29:10;;;;;;;6.53;2.83;;;;;;;8.70;100.00;100999.44;4964083;28;20496;-79
2022/12/20 08:31:41;;;;;;;7.97;2.50;;;;;;;8.63;100.00;101000.94;4963249;28;20050;-79
2022/12/20 08:34:06;;;;;;;7.47;2.28;;;;;;;8.52;100.00;101003.66;4958002;28;20043;-79
2022/12/20 08:36:32;;;;;;;3.10;1.90;;;;;;;8.60;100.00;101003.78;4969649;28;20093;-79
2022/12/20 08:39:00;;;;;;;4.13;2.10;;;;;;;8.63;100.00;101000.94;4962651;28;20555;-79
2022/12/20 08:41:26;;;;;;;4.65;2.67;;;;;;;8.66;100.00;101003.22;4981039;28;20052;-78
2022/12/20 08:43:51;;;;;;;4.80;2.38;;;;;;;8.74;100.00;101000.78;4949054;28;20038;-79
2022/12/20 08:46:17;;;;;;;5.55;2.20;;;;;;;8.73;100.00;101003.50;4960224;28;20596;-78
2022/12/20 08:48:42;;;;;;;4.45;2.03;;;;;;;8.74;100.00;100995.59;4960035;28;20447;-79
2022/12/20 08:51:10;;;;;;;7.25;2.30;;;;;;;8.73;100.00;101000.91;4962625;28;20035;-78
2022/12/20 08:53:37;;;;;;;4.88;2.10;;;;;;;8.80;100.00;100993.41;4960776;28;20027;-79
2022/12/20 08:56:09;;;;;;;3.08;2.13;;;;;;;8.62;100.00;100998.47;4960135;28;20066;-80
2022/12/20 08:58:35;;;;;;;6.50;2.42;;;;;;;8.60;100.00;100996.03;4962920;28;20026;-80
2022/12/20 09:01:04;;;;;;;4.53;2.20;;;;;;;8.68;100.00;101003.94;4957231;28;20049;-80
2022/12/20 09:03:31;;;;;;;8.25;2.40;;;;;;;8.53;100.00;101000.94;4947895;28;20027;-80
2022/12/20 09:05:58;;;;;;;5.72;2.25;;;;;;;8.57;100.00;101006.66;4962046;28;20038;-80
2022/12/20 09:08:23;;;;;;;8.35;2.15;;;;;;;8.57;100.00;100999.72;4957321;28;20054;-79
2022/12/20 09:10:49;;;;;;;6.32;1.90;;;;;;;8.66;100.00;101000.63;4949967;28;20035;-80
2022/12/20 09:13:14;;;;;;;7.43;2.15;;;;;;;8.75;100.00;101001.59;4945025;28;20070;-80
2022/12/20 09:15:41;;;;;;;6.05;2.47;;;;;;;8.75;100.00;101004.97;4961013;28;20097;-80
2022/12/20 09:18:06;;;;;;;6.50;2.25;;;;;;;8.83;100.00;101004.28;4944207;28;20695;-80
2022/12/20 09:20:32;;;;;;;8.57;3.35;;;;;;;8.76;100.00;101000.66;4952487;28;20043;-80
2022/12/20 09:22:58;;;;;;;4.03;2.33;;;;;;;8.84;100.00;100992.19;4959871;28;20049;-80
2022/12/20 09:25:25;;;;;;;10.18;2.47;;;;;;;8.92;100.00;100987.94;4978000;28;20050;-80
2022/12/20 09:27:52;;;;;;;4.90;2.08;;;;;;;8.96;100.00;100985.88;4987042;28;20046;-79
2022/12/20 09:30:17;;;;;;;5.30;2.40;;;;;;;8.92;100.00;100981.94;4971206;28;20054;-80
2022/12/20 09:32:43;;;;;;;7.82;2.97;;;;;;;8.92;100.00;100989.72;4964717;28;20219;-79
2022/12/20 09:35:08;;;;;;;9.25;2.55;;;;;;;8.88;100.00;100984.00;4970151;28;20026;-80
2022/12/20 09:37:35;;;;;;;11.45;2.55;;;;;;;8.90;100.00;100982.09;4966051;28;20122;-79
2022/12/20 09:40:00;;;;;;;6.15;2.63;;;;;;;8.91;100.00;100988.06;4970294;28;20031;-80
2022/12/20 09:42:28;;;;;;;5.85;2.22;;;;;;;8.85;100.00;100993.81;4970991;28;20078;-80
2022/12/20 09:45:04;;;;;;;7.88;2.58;;;;;;;8.85;100.00;100986.03;4948583;28;20085;-79
2022/12/20 09:47:33;;;;;;;5.35;2.88;;;;;;;8.85;100.00;100983.47;4966742;28;20038;-80
2022/12/20 09:49:58;;;;;;;6.97;2.60;;;;;;;8.81;100.00;100980.34;4967573;28;20527;-80
2022/12/20 09:52:34;;;;;;;6.38;2.55;;;;;;;8.81;100.00;100992.47;4968130;28;20045;-80
2022/12/20 09:55:25;;;;;;;10.13;2.67;;;;;;;8.73;100.00;100996.56;4964061;28;20332;-81
2022/12/20 09:58:09;;;;;;;7.50;2.85;;;;;;;8.75;100.00;100988.66;4948460;28;20051;-79
2022/12/20 10:00:39;;;;;;;5.53;2.80;;;;;;;8.75;100.00;100994.63;4968823;28;20113;-82
2022/12/20 10:03:05;;;;;;;5.50;2.90;;;;;;;8.69;100.00;100984.84;4971890;28;20509;-80
2022/12/20 10:05:53;;;;;;;4.82;2.47;;;;;;;8.61;100.00;100991.66;4969767;28;20038;-80
2022/12/20 10:08:34;;;;;;;12.15;2.83;;;;;;;8.53;100.00;100994.94;4968108;28;20034;-80
2022/12/20 10:11:09;;;;;;;7.35;3.05;;;;;;;8.50;100.00;100996.03;4963144;28;20091;-80
2022/12/20 10:13:46;;;;;;;7.55;3.13;;;;;;;8.40;100.00;100990.03;4954676;28;20113;-81
2022/12/20 10:16:27;;;;;;;5.75;3.20;;;;;;;8.30;100.00;100982.28;4965873;28;20073;-80
2022/12/20 10:19:03;;;;;;;14.20;6.78;;;;;;;8.34;100.00;100969.91;4968010;28;20785;-81
2022/12/20 10:22:03;;;;;;;8.23;3.70;;;;;;;8.27;100.00;100969.66;4971306;28;20137;-80
2022/12/20 10:24:34;;;;;;;10.50;3.35;;;;;;;8.26;100.00;100962.84;4939875;28;20998;-80
2022/12/20 10:27:17;;;;;;;5.18;2.95;;;;;;;8.31;100.00;100960.66;4969636;28;20053;-79
2022/12/20 10:29:43;;;;;;;;;;;;;;;8.52;100.00;100963.13;4982080;28;20035;-80
2022/12/20 10:32:18;;;;;;;7.95;3.15;;;;;;;8.73;100.00;100957.78;4963652;28;19977;-80
2022/12/20 10:34:54;;;;;;;15.43;2.78;;;;;;;8.90;100.00;100953.63;4967391;28;20022;-82
2022/12/20 10:37:20;;;;;;;10.77;2.53;;;;;;;8.98;100.00;100940.00;4960805;28;20516;-80
2022/12/20 10:39:47;;;;;;;6.65;2.55;;;;;;;9.01;100.00;100939.72;4968582;28;20054;-80
2022/12/20 10:42:32;;;;;;;5.72;2.50;;;;;;;9.13;100.00;100935.97;4955993;28;20046;-80
2022/12/20 10:44:57;;;;;;;5.82;2.42;;;;;;;9.12;100.00;100942.13;4959736;28;20109;-80
2022/12/20 10:47:40;;;;;;;6.85;2.72;;;;;;;9.31;100.00;100924.88;4974945;28;20102;-81
2022/12/20 10:50:16;;;;;;;7.10;2.33;;;;;;;9.33;100.00;100925.56;4966130;28;20031;-79
2022/12/20 10:52:42;;;;;;;15.02;2.70;;;;;;;9.44;100.00;100933.13;4967822;28;20051;-80
2022/12/20 10:55:43;;;;;;;5.05;2.47;;;;;;;9.46;100.00;100935.56;4949135;28;20118;-80
2022/12/20 10:58:15;;;;;;;10.77;2.50;;;;;;;9.53;100.00;100927.06;4912689;29;20058;-79
2022/12/20 11:00:41;;;;;;;7.00;1.85;;;;;;;9.61;100.00;100928.94;4960598;28;20770;-80
2022/12/20 11:03:17;;;;;;;4.03;2.13;;;;;;;9.56;100.00;100915.59;4965137;28;20682;-80
2022/12/20 11:06:02;;;;;;;5.30;2.08;;;;;;;9.64;100.00;100920.03;4966307;28;20128;-80
2022/12/20 11:08:31;;;;;;;4.15;1.63;;;;;;;9.68;100.00;100908.44;4962794;28;20043;-79
2022/12/20 11:11:15;;;;;;;5.97;2.20;;;;;;;9.90;99.12;100907.19;4950685;28;20038;-79
2022/12/20 11:13:42;;;;;;;4.03;1.75;;;;;;;9.98;97.64;100903.84;4966252;28;20093;-80
2022/12/20 11:16:33;;;;;;;8.95;3.42;;;;;;;9.89;98.63;100897.81;4966730;28;20023;-79
2022/12/20 11:19:37;;;;;;;5.50;1.85;;;;;;;9.98;98.58;100901.25;4949111;28;20040;-80
2022/12/20 11:22:11;;;;;;;7.38;2.95;;;;;;;10.05;98.31;100903.09;4953548;28;20788;-80
2022/12/20 11:25:01;;;;;;;3.85;1.90;;;;;;;10.27;96.47;100901.00;4962923;28;20292;-81
2022/12/20 11:27:59;;;;;;;4.45;1.90;;;;;;;10.18;96.21;100897.53;4961284;28;20688;-80
2022/12/20 11:30:57;;;;;;;7.15;1.80;;;;;;;10.30;96.17;100893.78;4952323;28;20039;-79
2022/12/20 11:33:51;;;;;;;4.53;1.73;;;;;;;10.26;96.60;100889.81;4943151;28;20088;-80
2022/12/20 11:36:59;;;;;;;4.97;2.10;;;;;;;10.34;96.25;100889.09;4977745;28;20066;-80
2022/12/20 11:39:59;;;;;;;5.75;1.70;;;;;;;10.37;96.43;100877.59;4961753;28;20070;-80
2022/12/20 11:42:46;;;;;;;2.92;1.42;;;;;;;10.34;96.72;100881.31;4970802;28;20042;-80
2022/12/20 11:45:30;;;;;;;5.38;1.92;;;;;;;10.45;96.42;100875.88;4970040;28;20122;-80